Time;durP1;ratioP1;P1;durP2;ratioP2;P2;SDS_P1;SDS_P2;PMS_P1;PMS_P2;Temp;Humidity;BMP_temperature;BMP_pressure;BME280_temperature;BME280_humidity;BME280_pressure;Samples;Min_cycle;Max_cycle;Signal;HPM_P1;HPM_P2
2023/12/31 00:01:12;;;;;;;25.90;15.82;;;;;;;3.01;79.64;95087.16;5009982;28;20049;-69
2023/12/31 00:03:37;;;;;;;25.75;15.68;;;;;;;3.13;79.27;95081.41;4988058;28;20026;-70
2023/12/31 00:06:03;;;;;;;23.27;13.90;;;;;;;3.07;79.42;95074.00;4992341;28;20093;-69
2023/12/31 00:08:28;;;;;;;22.30;12.32;;;;;;;3.00;79.85;95058.97;4992227;28;20025;-69
2023/12/31 00:10:53;;;;;;;9.85;6.10;;;;;;;3.21;79.95;95073.34;4992669;28;20038;-70
2023/12/31 00:13:19;;;;;;;24.83;14.27;;;;;;;3.13;80.03;95086.53;5005434;28;20034;-70
2023/12/31 00:15:44;;;;;;;26.70;16.45;;;;;;;3.19;79.01;95079.44;4975599;28;20513;-69
2023/12/31 00:18:10;;;;;;;27.58;17.70;;;;;;;2.99;79.83;95065.03;4990103;28;20080;-70
2023/12/31 00:20:35;;;;;;;27.15;17.23;;;;;;;3.04;80.37;95081.88;4974989;28;20103;-69
2023/12/31 00:23:00;;;;;;;26.08;16.52;;;;;;;3.01;79.56;95061.50;4990014;28;20042;-70
2023/12/31 00:25:26;;;;;;;25.52;17.23;;;;;;;3.21;79.14;95083.59;4988462;28;20123;-70
2023/12/31 00:27:51;;;;;;;25.00;17.20;;;;;;;3.07;79.50;95091.97;4992008;28;20022;-70
2023/12/31 00:30:17;;;;;;;28.42;16.38;;;;;;;3.19;79.29;95084.59;4991134;28;20042;-70
2023/12/31 00:32:42;;;;;;;28.33;17.67;;;;;;;2.94;80.28;95078.06;5009006;28;20045;-70
2023/12/31 00:35:08;;;;;;;28.13;19.33;;;;;;;3.13;79.24;95081.41;4988376;28;20508;-70
2023/12/31 00:37:33;;;;;;;29.25;18.35;;;;;;;3.13;79.57;95095.97;4992098;28;20060;-70
2023/12/31 00:39:59;;;;;;;31.98;19.85;;;;;;;3.11;78.82;95098.63;4992048;28;20042;-70
2023/12/31 00:42:24;;;;;;;27.33;17.77;;;;;;;3.09;78.52;95095.31;4992056;28;20053;-69
2023/12/31 00:44:49;;;;;;;29.23;19.23;;;;;;;2.90;79.47;95099.69;4970030;28;20452;-69
2023/12/31 00:47:15;;;;;;;26.40;17.65;;;;;;;2.88;79.06;95083.50;5009257;28;20026;-70
2023/12/31 00:49:40;;;;;;;26.90;17.65;;;;;;;2.82;78.98;95081.25;5006371;28;20042;-69
2023/12/31 00:52:06;;;;;;;24.70;17.17;;;;;;;3.03;78.18;95095.59;4975247;28;20102;-70
2023/12/31 00:54:31;;;;;;;24.02;16.45;;;;;;;3.00;78.10;95095.75;4999818;28;20570;-69
2023/12/31 00:56:57;;;;;;;24.70;16.27;;;;;;;2.94;78.30;95093.47;4993458;28;20076;-70
2023/12/31 00:59:23;;;;;;;19.80;13.40;;;;;;;2.99;77.47;95077.88;4990600;28;20038;-69
2023/12/31 01:01:50;;;;;;;13.98;9.65;;;;;;;2.73;78.06;95054.31;5008555;28;20744;-70
2023/12/31 01:04:15;;;;;;;15.20;10.73;;;;;;;2.69;78.23;95088.69;4986847;28;20111;-70
2023/12/31 01:06:41;;;;;;;13.13;8.73;;;;;;;2.77;78.13;95098.59;4975854;28;20034;-70
2023/12/31 01:09:06;;;;;;;13.48;9.27;;;;;;;2.74;77.91;95094.44;5008669;28;20483;-69
2023/12/31 01:11:33;;;;;;;10.50;6.65;;;;;;;2.80;78.43;95083.06;4991504;28;20026;-70
2023/12/31 01:13:59;;;;;;;9.23;5.40;;;;;;;2.91;77.69;95084.19;4968374;28;20428;-69
2023/12/31 01:16:24;;;;;;;7.95;5.53;;;;;;;2.74;78.51;95084.19;4990957;28;20033;-69
2023/12/31 01:18:50;;;;;;;7.63;5.30;;;;;;;2.69;77.96;95078.44;4990322;28;20030;-70
2023/12/31 01:21:17;;;;;;;7.90;5.20;;;;;;;2.71;78.02;95079.19;5006515;28;20095;-70
2023/12/31 01:23:42;;;;;;;7.50;5.90;;;;;;;2.73;77.91;95068.84;4968160;28;20022;-69
2023/12/31 01:26:08;;;;;;;10.68;5.57;;;;;;;2.80;78.59;95073.63;4973773;28;20049;-69
2023/12/31 01:28:33;;;;;;;7.57;4.95;;;;;;;2.85;78.43;95071.66;5006697;28;20484;-69
2023/12/31 01:30:58;;;;;;;8.13;5.03;;;;;;;2.70;78.94;95067.25;4986520;28;20068;-70
2023/12/31 01:33:24;;;;;;;8.40;6.32;;;;;;;2.34;79.73;95064.69;4982000;28;20377;-70
2023/12/31 01:35:49;;;;;;;10.35;7.15;;;;;;;2.27;79.75;95068.47;4986625;28;20068;-69
2023/12/31 01:38:15;;;;;;;10.73;7.07;;;;;;;2.11;80.86;95065.75;5006459;28;20511;-70
2023/12/31 01:40:40;;;;;;;8.18;5.65;;;;;;;2.45;80.34;95067.59;4984489;28;20515;-69
2023/12/31 01:43:06;;;;;;;9.13;5.82;;;;;;;2.15;80.17;95039.94;5006161;28;20289;-69
2023/12/31 01:45:31;;;;;;;9.23;5.65;;;;;;;2.15;80.73;95070.69;5005643;28;20030;-69
2023/12/31 01:47:57;;;;;;;8.23;5.35;;;;;;;2.23;81.01;95073.72;4989972;28;20037;-70
2023/12/31 01:50:22;;;;;;;9.23;5.93;;;;;;;2.28;81.31;95064.97;4973822;28;20496;-70
2023/12/31 01:52:47;;;;;;;9.63;6.40;;;;;;;2.23;80.96;95078.03;4990340;28;20030;-69
2023/12/31 01:55:13;;;;;;;10.65;6.45;;;;;;;2.03;81.50;95071.22;4950974;28;20049;-70
2023/12/31 01:57:38;;;;;;;9.18;6.50;;;;;;;2.27;81.24;95064.16;4972386;28;20088;-69
2023/12/31 02:00:06;;;;;;;9.18;6.65;;;;;;;2.18;81.83;95075.66;4970920;28;20515;-70
2023/12/31 02:02:31;;;;;;;9.35;7.25;;;;;;;2.07;81.60;95070.19;4973308;28;20040;-70
2023/12/31 02:04:57;;;;;;;10.57;7.03;;;;;;;2.21;81.45;95067.00;4986518;28;20034;-70
2023/12/31 02:07:23;;;;;;;11.50;7.32;;;;;;;2.00;82.16;95068.81;4990750;28;20128;-70
2023/12/31 02:09:49;;;;;;;8.55;6.07;;;;;;;2.08;84.23;95058.22;4973599;28;20734;-70
2023/12/31 02:12:14;;;;;;;9.32;6.45;;;;;;;2.24;83.90;95054.06;5007755;28;20045;-71
2023/12/31 02:14:40;;;;;;;10.43;6.40;;;;;;;2.23;83.65;95057.53;4963398;28;20083;-70
2023/12/31 02:17:05;;;;;;;10.85;6.47;;;;;;;2.17;84.38;95047.53;4954411;28;20038;-70
2023/12/31 02:19:30;;;;;;;9.52;6.00;;;;;;;2.47;83.58;95058.09;4964407;28;20042;-70
2023/12/31 02:21:56;;;;;;;8.57;5.78;;;;;;;2.63;82.05;95046.22;4988139;28;20026;-70
2023/12/31 02:24:24;;;;;;;8.18;5.30;;;;;;;2.66;82.41;95050.34;4966533;28;20033;-70
2023/12/31 02:26:50;;;;;;;7.63;5.15;;;;;;;2.68;82.39;95044.25;4954334;28;20050;-71
2023/12/31 02:29:15;;;;;;;6.88;5.05;;;;;;;2.72;82.37;95042.38;4969282;28;20038;-70
2023/12/31 02:31:41;;;;;;;9.93;5.30;;;;;;;2.86;82.42;95028.88;4954651;28;20026;-70
2023/12/31 02:34:07;;;;;;;8.02;6.30;;;;;;;2.73;80.65;95005.56;4968091;28;20563;-70
2023/12/31 02:36:33;;;;;;;8.00;5.10;;;;;;;2.71;81.05;94997.09;4986165;28;20026;-70
2023/12/31 02:38:58;;;;;;;8.38;5.30;;;;;;;2.83;81.78;95031.59;4935192;28;20439;-70
2023/12/31 02:41:24;;;;;;;7.63;5.15;;;;;;;2.61;82.19;95030.06;4968142;28;20030;-71
2023/12/31 02:43:49;;;;;;;7.80;4.82;;;;;;;2.74;81.68;95017.47;4965948;28;20084;-71
2023/12/31 02:46:15;;;;;;;6.47;4.60;;;;;;;2.71;81.70;95027.06;4936427;28;20681;-71
2023/12/31 02:48:41;;;;;;;8.93;4.95;;;;;;;2.68;81.30;95035.72;4984662;28;20485;-70
2023/12/31 02:51:07;;;;;;;6.63;4.63;;;;;;;2.68;81.30;95031.44;4991312;28;20041;-70
2023/12/31 02:53:33;;;;;;;6.10;4.28;;;;;;;2.74;80.98;95032.03;4968091;28;20034;-70
2023/12/31 02:55:58;;;;;;;6.25;4.00;;;;;;;2.63;80.02;95030.81;4989385;28;20136;-70
2023/12/31 02:58:23;;;;;;;6.35;4.60;;;;;;;2.28;81.03;95021.41;4990198;28;20042;-70
2023/12/31 03:00:49;;;;;;;7.50;4.68;;;;;;;2.58;81.30;95037.91;4984161;28;20097;-70
2023/12/31 03:03:14;;;;;;;6.20;4.22;;;;;;;2.63;80.75;95035.94;4988338;28;20263;-71
2023/12/31 03:05:40;;;;;;;7.07;4.80;;;;;;;2.28;81.38;95016.28;4972727;28;20400;-71
2023/12/31 03:08:05;;;;;;;7.20;5.03;;;;;;;2.36;81.38;95025.25;4973737;28;20622;-70
2023/12/31 03:10:31;;;;;;;7.43;4.75;;;;;;;2.38;80.01;95040.59;4957019;28;20038;-70
2023/12/31 03:12:56;;;;;;;8.05;5.00;;;;;;;2.41;80.13;95043.00;4990739;28;20030;-71
2023/12/31 03:15:22;;;;;;;6.75;5.03;;;;;;;2.29;80.98;95030.78;5004089;28;20054;-70
2023/12/31 03:17:48;;;;;;;7.03;4.55;;;;;;;2.32;79.77;95033.19;5009357;28;20472;-71
2023/12/31 03:20:13;;;;;;;11.10;6.38;;;;;;;2.27;79.93;95028.25;4991771;28;20046;-70
2023/12/31 03:22:39;;;;;;;9.73;6.40;;;;;;;2.29;80.83;95035.91;5003530;28;20484;-71
2023/12/31 03:25:05;;;;;;;9.00;6.00;;;;;;;2.15;80.82;95011.75;5006383;28;20034;-70
2023/12/31 03:27:31;;;;;;;6.95;4.95;;;;;;;2.30;80.99;95033.25;5004781;28;20412;-70
2023/12/31 03:29:57;;;;;;;7.60;4.40;;;;;;;2.48;80.86;95041.81;4993266;28;20049;-70
2023/12/31 03:32:22;;;;;;;8.43;5.20;;;;;;;2.36;81.00;95027.81;5004926;28;20026;-70
2023/12/31 03:34:48;;;;;;;5.50;4.30;;;;;;;2.55;80.64;95027.78;4982773;28;20040;-70
2023/12/31 03:37:14;;;;;;;6.85;4.85;;;;;;;2.53;79.20;95027.03;5008709;28;20041;-70
2023/12/31 03:39:40;;;;;;;5.75;4.55;;;;;;;2.30;79.34;95032.41;5008916;28;20053;-70
2023/12/31 03:42:06;;;;;;;5.78;4.32;;;;;;;2.17;80.78;95022.75;5007921;28;20025;-69
2023/12/31 03:44:31;;;;;;;7.10;5.32;;;;;;;2.26;81.56;95030.88;4989112;28;20049;-69
2023/12/31 03:46:57;;;;;;;8.45;5.50;;;;;;;2.22;83.35;95028.47;5008208;28;20030;-70
2023/12/31 03:49:22;;;;;;;8.63;5.63;;;;;;;2.33;83.49;95025.41;4987877;28;20034;-71
2023/12/31 03:51:48;;;;;;;8.77;5.60;;;;;;;2.55;82.52;95024.41;5005575;28;20029;-70
2023/12/31 03:54:13;;;;;;;9.82;5.20;;;;;;;2.57;82.61;95022.59;5006164;28;20026;-70
2023/12/31 03:56:38;;;;;;;7.95;5.53;;;;;;;2.77;82.39;95029.31;4992619;28;20024;-70
2023/12/31 03:59:04;;;;;;;7.50;5.40;;;;;;;2.94;81.19;95039.59;5009057;28;20420;-69
2023/12/31 04:01:29;;;;;;;7.60;5.07;;;;;;;2.90;81.07;95033.78;5008983;28;20447;-70
2023/12/31 04:03:55;;;;;;;9.68;6.13;;;;;;;2.93;80.36;95042.25;5004199;28;20030;-70
2023/12/31 04:06:20;;;;;;;9.85;6.18;;;;;;;3.01;80.15;95046.09;5010012;28;20473;-69
2023/12/31 04:08:46;;;;;;;8.30;5.40;;;;;;;3.05;79.60;95039.06;5009166;28;20030;-70
2023/12/31 04:11:13;;;;;;;11.43;5.93;;;;;;;2.91;79.39;95029.47;5009157;28;20600;-70
2023/12/31 04:13:41;;;;;;;12.60;6.90;;;;;;;2.87;79.46;95030.50;4986720;28;20038;-70
2023/12/31 04:16:08;;;;;;;7.80;5.78;;;;;;;2.77;79.45;95037.03;4992497;28;20092;-70
2023/12/31 04:18:34;;;;;;;7.53;5.22;;;;;;;2.82;79.58;95037.63;5008184;28;20029;-70
2023/12/31 04:20:59;;;;;;;8.68;4.68;;;;;;;2.78;78.72;95036.09;4986408;28;20129;-70
2023/12/31 04:23:25;;;;;;;10.70;6.97;;;;;;;2.91;78.75;95048.25;5004575;28;20487;-70
2023/12/31 04:25:50;;;;;;;7.53;5.38;;;;;;;2.76;78.78;95035.34;5008589;28;20488;-70
2023/12/31 04:28:16;;;;;;;21.58;12.32;;;;;;;2.61;79.40;95040.31;5007630;28;20022;-70
2023/12/31 04:30:41;;;;;;;17.42;11.00;;;;;;;2.42;80.32;95057.47;5008814;28;20056;-70
2023/12/31 04:33:07;;;;;;;13.88;8.52;;;;;;;2.28;80.79;95049.59;5006453;28;20480;-70
2023/12/31 04:35:32;;;;;;;9.40;6.70;;;;;;;2.41;80.15;95066.09;5006377;28;20373;-70
2023/12/31 04:37:58;;;;;;;11.57;6.78;;;;;;;2.30;80.18;95056.31;5007796;28;20034;-70
2023/12/31 04:40:23;;;;;;;9.77;6.63;;;;;;;1.92;80.66;95063.19;5009024;28;20060;-69
2023/12/31 04:42:48;;;;;;;11.43;6.93;;;;;;;1.84;80.63;95061.00;5007956;28;20476;-70
2023/12/31 04:45:14;;;;;;;11.23;7.63;;;;;;;1.84;80.57;95060.16;4984894;28;20443;-70
2023/12/31 04:47:39;;;;;;;10.40;7.07;;;;;;;1.65;80.99;95060.97;5008079;28;20025;-70
2023/12/31 04:50:05;;;;;;;8.85;5.90;;;;;;;1.64;80.57;95059.28;5007451;28;20022;-69
2023/12/31 04:52:31;;;;;;;12.90;9.63;;;;;;;1.73;79.51;95071.72;4988884;28;20469;-70
2023/12/31 04:54:56;;;;;;;17.23;11.98;;;;;;;1.49;80.23;95065.09;5003894;28;20084;-70
2023/12/31 04:57:22;;;;;;;20.70;15.63;;;;;;;1.33;80.50;95075.16;4972899;28;20061;-70
2023/12/31 04:59:47;;;;;;;26.10;18.25;;;;;;;1.48;80.30;95068.56;5008220;28;20041;-70
2023/12/31 05:02:12;;;;;;;28.33;19.77;;;;;;;1.55;79.78;95075.91;5003212;28;20034;-70
2023/12/31 05:04:40;;;;;;;34.53;22.77;;;;;;;1.26;80.32;95078.91;5003529;28;20037;-70
2023/12/31 05:07:08;;;;;;;23.13;15.48;;;;;;;1.51;79.14;95076.13;5007022;28;20074;-70
2023/12/31 05:09:33;;;;;;;20.27;13.40;;;;;;;1.40;78.42;95070.63;5006444;28;20037;-70
2023/12/31 05:11:58;;;;;;;26.17;15.40;;;;;;;1.44;78.91;95072.97;4989724;28;20659;-70
2023/12/31 05:14:24;;;;;;;18.02;12.57;;;;;;;1.36;78.29;95053.72;5002742;28;20184;-70
2023/12/31 05:16:49;;;;;;;16.38;11.32;;;;;;;1.48;77.82;95081.38;4982675;28;20520;-70
2023/12/31 05:19:15;;;;;;;17.40;11.43;;;;;;;1.15;78.08;95081.91;4988601;28;20038;-69
2023/12/31 05:21:40;;;;;;;16.08;12.07;;;;;;;1.34;78.22;95082.78;5008061;28;20052;-69
2023/12/31 05:24:06;;;;;;;12.50;9.02;;;;;;;1.28;77.50;95075.38;5004761;28;20045;-69
2023/12/31 05:26:31;;;;;;;13.05;9.43;;;;;;;1.25;77.98;95084.88;4990482;28;20053;-69
2023/12/31 05:28:57;;;;;;;12.20;8.02;;;;;;;1.18;77.82;95070.69;5005676;28;20428;-69
2023/12/31 05:31:22;;;;;;;15.20;8.40;;;;;;;1.10;78.16;95083.81;4973073;28;20038;-70
2023/12/31 05:33:48;;;;;;;10.20;6.82;;;;;;;0.96;78.36;95075.88;4986540;28;20045;-69
2023/12/31 05:36:13;;;;;;;10.23;7.00;;;;;;;0.70;78.48;95044.53;5007631;28;20033;-69
2023/12/31 05:38:38;;;;;;;12.93;8.93;;;;;;;0.78;79.33;95072.31;4987206;28;20108;-69
2023/12/31 05:41:04;;;;;;;11.60;7.05;;;;;;;0.72;79.45;95068.28;5007874;28;20050;-70
2023/12/31 05:43:29;;;;;;;14.32;8.30;;;;;;;0.21;80.54;95069.44;4987189;28;20041;-69
2023/12/31 05:45:55;;;;;;;13.88;8.75;;;;;;;0.10;82.83;95069.03;4988344;28;20026;-69
2023/12/31 05:48:21;;;;;;;13.90;9.70;;;;;;;0.29;82.81;95076.84;4972293;28;20034;-69
2023/12/31 05:50:47;;;;;;;17.92;11.98;;;;;;;0.34;82.64;95080.06;5007858;28;20033;-69
2023/12/31 05:53:12;;;;;;;24.05;15.77;;;;;;;0.25;83.62;95045.44;4988573;28;20030;-70
2023/12/31 05:55:38;;;;;;;22.63;14.40;;;;;;;0.44;84.22;95082.16;4953938;28;20117;-70
2023/12/31 05:58:03;;;;;;;26.35;15.23;;;;;;;0.43;84.06;95072.00;4988760;28;20030;-71
2023/12/31 06:00:29;;;;;;;21.35;13.70;;;;;;;0.34;84.54;95068.09;4972696;28;20041;-69
2023/12/31 06:02:55;;;;;;;22.25;13.73;;;;;;;0.49;84.94;95086.28;4972951;28;20045;-69
2023/12/31 06:05:20;;;;;;;20.48;12.93;;;;;;;0.56;84.22;95080.88;4986190;28;20088;-69
2023/12/31 06:07:46;;;;;;;21.00;13.57;;;;;;;0.53;84.10;95088.66;4989878;28;20092;-69
2023/12/31 06:10:12;;;;;;;21.80;13.15;;;;;;;0.45;84.50;95088.13;4986257;28;20084;-69
2023/12/31 06:12:37;;;;;;;17.92;11.75;;;;;;;0.72;84.39;95077.69;4971295;28;20030;-69
2023/12/31 06:15:07;;;;;;;17.13;11.10;;;;;;;0.78;83.73;95093.66;4997004;28;20049;-69
2023/12/31 06:17:36;;;;;;;15.77;10.13;;;;;;;0.65;82.99;95054.94;5006209;28;20492;-69
2023/12/31 06:20:02;;;;;;;15.00;8.85;;;;;;;0.91;82.32;95093.13;5005067;28;20038;-70
2023/12/31 06:22:28;;;;;;;11.23;7.50;;;;;;;1.03;81.93;95092.63;5001605;28;20026;-69
2023/12/31 06:24:53;;;;;;;11.70;7.88;;;;;;;1.00;82.52;95087.63;5002516;28;20030;-70
2023/12/31 06:27:18;;;;;;;12.15;7.63;;;;;;;0.97;82.03;95093.72;5008529;28;20033;-69
2023/12/31 06:29:44;;;;;;;13.40;7.75;;;;;;;1.04;81.92;95102.81;5005391;28;20034;-69
2023/12/31 06:32:09;;;;;;;21.35;11.82;;;;;;;1.11;81.43;95085.47;5007385;28;20045;-70
2023/12/31 06:34:34;;;;;;;16.17;11.07;;;;;;;1.17;81.70;95086.94;5002956;28;20104;-70
2023/12/31 06:37:00;;;;;;;18.38;11.38;;;;;;;1.22;82.31;95100.38;4987717;28;20038;-70
2023/12/31 06:39:25;;;;;;;19.50;12.05;;;;;;;1.22;82.32;95102.94;5006617;28;20040;-70
2023/12/31 06:41:51;;;;;;;15.98;10.82;;;;;;;1.35;82.42;95101.53;5003867;28;20443;-69
2023/12/31 06:44:16;;;;;;;15.70;10.90;;;;;;;1.30;82.72;95100.88;5002377;28;20503;-70
2023/12/31 06:46:42;;;;;;;15.48;10.40;;;;;;;1.44;82.75;95102.88;5005687;28;20033;-70
2023/12/31 06:49:07;;;;;;;16.17;10.73;;;;;;;1.38;83.04;95106.53;5007669;28;20166;-70
2023/12/31 06:51:33;;;;;;;14.73;9.95;;;;;;;1.60;82.95;95103.88;5007843;28;20050;-69
2023/12/31 06:53:58;;;;;;;16.02;10.13;;;;;;;1.71;82.72;95111.94;5003133;28;20026;-70
2023/12/31 06:56:23;;;;;;;15.55;10.38;;;;;;;1.80;81.84;95103.00;5006757;28;20154;-70
2023/12/31 06:58:49;;;;;;;15.63;10.25;;;;;;;1.84;82.33;95111.38;4986913;28;20026;-69
2023/12/31 07:01:14;;;;;;;16.05;9.80;;;;;;;1.84;82.46;95099.44;5000774;28;20035;-70
2023/12/31 07:03:40;;;;;;;17.38;10.85;;;;;;;1.96;81.88;95108.28;5002374;28;20637;-69
2023/12/31 07:06:07;;;;;;;18.15;11.77;;;;;;;1.91;81.92;95112.78;5005374;28;20030;-69
2023/12/31 07:08:33;;;;;;;16.13;9.90;;;;;;;1.94;82.28;95105.78;4998503;28;20072;-69
2023/12/31 07:10:58;;;;;;;15.07;10.15;;;;;;;2.00;82.11;95112.38;4985920;28;20042;-69
2023/12/31 07:13:23;;;;;;;16.85;10.77;;;;;;;2.01;82.03;95114.06;4982845;28;20050;-69
2023/12/31 07:15:49;;;;;;;17.65;11.57;;;;;;;2.09;81.07;95124.78;4974068;28;20034;-70
2023/12/31 07:18:14;;;;;;;16.73;10.85;;;;;;;2.09;80.76;95127.38;4976742;28;20038;-70
2023/12/31 07:20:43;;;;;;;15.40;10.32;;;;;;;2.11;80.48;95120.41;4968105;28;20496;-70
2023/12/31 07:23:08;;;;;;;18.45;12.05;;;;;;;2.13;79.14;95118.63;4998313;28;20039;-69
2023/12/31 07:25:33;;;;;;;17.73;12.30;;;;;;;1.96;79.57;95113.41;4972719;28;20046;-69
2023/12/31 07:27:59;;;;;;;22.40;13.55;;;;;;;1.89;80.19;95125.66;4947858;28;20123;-70
2023/12/31 07:30:24;;;;;;;19.45;12.90;;;;;;;1.89;80.36;95125.66;4996280;28;20038;-70
2023/12/31 07:32:50;;;;;;;18.73;13.23;;;;;;;1.93;80.48;95113.56;4984347;28;20037;-70
2023/12/31 07:35:15;;;;;;;19.63;12.05;;;;;;;1.79;79.91;95089.38;4992181;28;20033;-69
2023/12/31 07:37:41;;;;;;;15.43;10.43;;;;;;;1.99;80.38;95120.97;4970822;28;20519;-69
2023/12/31 07:40:07;;;;;;;17.95;11.82;;;;;;;2.01;79.61;95121.75;4974173;28;20034;-69
2023/12/31 07:42:33;;;;;;;16.77;12.02;;;;;;;2.05;79.85;95110.44;4979306;28;20213;-69
2023/12/31 07:44:59;;;;;;;21.52;13.73;;;;;;;2.06;79.23;95119.78;4988547;28;20034;-69
2023/12/31 07:47:24;;;;;;;17.98;11.38;;;;;;;2.00;79.18;95108.06;4987027;28;20046;-69
2023/12/31 07:49:49;;;;;;;16.88;11.60;;;;;;;1.84;80.00;95109.69;4956973;28;20047;-69
2023/12/31 07:52:15;;;;;;;18.40;12.40;;;;;;;1.87;80.01;95111.28;4998268;28;20026;-70
2023/12/31 07:54:40;;;;;;;17.92;11.48;;;;;;;2.06;79.77;95122.34;4973999;28;20046;-70
2023/12/31 07:57:06;;;;;;;17.95;12.02;;;;;;;2.02;79.75;95120.84;4971896;28;20078;-70
2023/12/31 07:59:31;;;;;;;15.07;11.27;;;;;;;2.13;79.90;95123.75;4989265;28;20515;-70
2023/12/31 08:01:57;;;;;;;18.23;12.00;;;;;;;2.25;79.50;95122.34;4971388;28;20038;-69
2023/12/31 08:04:23;;;;;;;17.75;10.70;;;;;;;2.16;80.16;95109.97;4969389;28;20034;-69
2023/12/31 08:06:48;;;;;;;16.23;10.52;;;;;;;2.36;80.17;95127.00;4952419;28;20085;-70
2023/12/31 08:09:15;;;;;;;16.35;10.25;;;;;;;2.41;80.07;95114.81;4954663;28;20042;-70
2023/12/31 08:11:40;;;;;;;15.60;9.52;;;;;;;2.52;79.58;95120.25;4975042;28;20037;-70
2023/12/31 08:14:06;;;;;;;21.65;12.73;;;;;;;2.68;80.38;95126.34;4969420;28;20046;-70
2023/12/31 08:16:31;;;;;;;22.65;13.43;;;;;;;2.83;80.95;95127.34;4992459;28;20042;-70
2023/12/31 08:18:57;;;;;;;19.75;12.80;;;;;;;2.95;81.01;95127.66;4997565;28;20022;-70
2023/12/31 08:21:22;;;;;;;19.75;12.68;;;;;;;3.18;79.70;95122.28;4989005;28;20519;-70
2023/12/31 08:23:48;;;;;;;18.70;11.32;;;;;;;3.43;78.92;95129.59;4989241;28;20019;-70
2023/12/31 08:26:13;;;;;;;25.48;15.50;;;;;;;3.53;79.11;95129.94;4998795;28;20607;-70
2023/12/31 08:28:39;;;;;;;22.17;14.43;;;;;;;3.60;78.45;95104.81;4972562;28;20037;-70
2023/12/31 08:31:04;;;;;;;34.35;24.60;;;;;;;3.83;78.55;95121.59;4973188;28;20057;-70
2023/12/31 08:33:30;;;;;;;30.58;19.30;;;;;;;4.16;77.59;95125.00;4958971;28;20037;-70
2023/12/31 08:35:55;;;;;;;28.98;18.30;;;;;;;4.19;77.40;95129.13;4999584;28;20041;-70
2023/12/31 08:38:21;;;;;;;24.08;16.73;;;;;;;4.42;76.08;95130.47;4963302;28;20133;-70
2023/12/31 08:40:46;;;;;;;25.40;17.05;;;;;;;4.55;75.60;95110.09;4976833;28;20089;-70
2023/12/31 08:43:11;;;;;;;20.27;15.27;;;;;;;4.74;75.24;95121.03;4958690;28;20029;-70
2023/12/31 08:45:39;;;;;;;28.67;18.65;;;;;;;4.83;75.62;95122.25;4973805;28;20113;-70
2023/12/31 08:48:07;;;;;;;25.88;17.63;;;;;;;5.01;74.90;95122.97;4969194;28;20030;-70
2023/12/31 08:50:33;;;;;;;23.75;16.83;;;;;;;5.19;74.58;95121.94;5008883;28;20191;-70
2023/12/31 08:52:58;;;;;;;24.80;16.90;;;;;;;5.25;73.88;95124.16;4989694;28;20497;-70
2023/12/31 08:55:23;;;;;;;26.33;18.40;;;;;;;5.45;73.63;95117.88;4987916;28;20042;-69
2023/12/31 08:57:49;;;;;;;28.23;19.25;;;;;;;5.58;73.37;95111.09;4972070;28;20033;-70
2023/12/31 09:00:17;;;;;;;32.35;21.58;;;;;;;5.48;73.52;95096.25;4970933;28;20120;-70
2023/12/31 09:02:43;;;;;;;28.73;19.83;;;;;;;5.80;73.24;95118.38;4959125;28;20029;-71
2023/12/31 09:05:09;;;;;;;31.70;20.45;;;;;;;6.00;72.54;95119.00;4973180;28;20065;-71
2023/12/31 09:07:35;;;;;;;32.28;20.25;;;;;;;6.07;72.01;95114.28;4970719;28;20063;-70
2023/12/31 09:10:04;;;;;;;29.88;18.80;;;;;;;5.94;72.68;95117.59;4956598;28;20165;-70
2023/12/31 09:12:29;;;;;;;24.10;18.08;;;;;;;6.13;72.52;95113.91;4986598;28;20022;-70
2023/12/31 09:14:55;;;;;;;24.50;17.23;;;;;;;6.11;72.74;95116.59;4996537;28;20120;-70
2023/12/31 09:17:20;;;;;;;25.83;16.23;;;;;;;6.21;71.69;95107.38;5006279;28;20492;-70
2023/12/31 09:19:45;;;;;;;23.52;15.93;;;;;;;6.16;72.67;95109.41;5004501;28;20492;-72
2023/12/31 09:22:11;;;;;;;23.73;16.13;;;;;;;6.28;72.47;95104.41;5005138;28;20026;-73
2023/12/31 09:24:36;;;;;;;26.58;17.52;;;;;;;6.20;72.62;95102.31;5005618;28;20038;-73
2023/12/31 09:27:03;;;;;;;30.08;19.35;;;;;;;5.95;72.93;95090.06;5002203;28;20514;-72
2023/12/31 09:29:29;;;;;;;28.35;17.88;;;;;;;5.94;73.65;95088.41;4989379;28;20554;-72
2023/12/31 09:31:55;;;;;;;26.63;16.95;;;;;;;5.94;73.91;95085.84;5007697;28;20444;-71
2023/12/31 09:34:20;;;;;;;25.75;17.20;;;;;;;6.25;72.70;95074.47;5004893;28;20030;-70
2023/12/31 09:36:45;;;;;;;25.83;16.75;;;;;;;6.22;72.95;95072.09;4989728;28;20483;-70
2023/12/31 09:39:11;;;;;;;25.63;18.02;;;;;;;6.04;73.48;95084.34;5007110;28;20045;-70
2023/12/31 09:41:37;;;;;;;26.30;17.90;;;;;;;5.96;73.91;95082.25;5006510;28;20521;-70
2023/12/31 09:44:03;;;;;;;25.42;17.50;;;;;;;6.13;73.48;95058.00;4989162;28;20060;-69
2023/12/31 09:46:31;;;;;;;36.35;20.77;;;;;;;6.34;73.33;95073.06;4989801;28;20555;-70
2023/12/31 09:48:56;;;;;;;24.33;16.92;;;;;;;6.03;73.87;95044.81;4972384;28;20022;-71
2023/12/31 09:51:21;;;;;;;26.55;17.48;;;;;;;6.25;73.79;95057.25;4987917;28;20516;-70
2023/12/31 09:53:47;;;;;;;26.55;17.63;;;;;;;6.47;73.05;95061.06;5001404;28;20500;-70
2023/12/31 09:56:13;;;;;;;23.95;17.02;;;;;;;6.57;72.66;95056.13;4987588;28;20080;-70
2023/12/31 09:58:38;;;;;;;25.02;15.95;;;;;;;6.76;71.93;95056.63;4987407;28;20036;-70
2023/12/31 10:01:04;;;;;;;21.02;13.90;;;;;;;6.80;71.50;95042.63;5006652;28;20042;-70
2023/12/31 10:03:30;;;;;;;19.45;13.45;;;;;;;6.63;71.89;95051.44;5004705;28;20036;-70
2023/12/31 10:05:56;;;;;;;21.98;13.90;;;;;;;6.57;71.96;95043.25;4988461;28;20481;-70
2023/12/31 10:08:21;;;;;;;17.75;12.32;;;;;;;6.63;71.74;95041.13;4987443;28;20065;-70
2023/12/31 10:10:47;;;;;;;42.00;21.15;;;;;;;6.77;71.29;95032.50;4974020;28;20030;-70
2023/12/31 10:13:16;;;;;;;26.45;18.25;;;;;;;6.87;70.63;95037.88;4987679;28;20525;-70
2023/12/31 10:15:42;;;;;;;20.85;13.00;;;;;;;7.06;69.74;95022.84;4988167;28;20030;-70
2023/12/31 10:18:07;;;;;;;19.95;13.90;;;;;;;6.98;70.17;95035.41;4971772;28;20121;-70
2023/12/31 10:20:32;;;;;;;19.30;14.27;;;;;;;7.13;69.85;95026.69;4971353;28;20121;-69
2023/12/31 10:23:00;;;;;;;21.30;13.00;;;;;;;7.12;69.80;95025.00;4989602;28;20029;-69
2023/12/31 10:25:28;;;;;;;20.55;13.90;;;;;;;7.32;68.99;95018.50;5001091;28;20507;-69
2023/12/31 10:27:53;;;;;;;18.15;11.88;;;;;;;7.60;67.89;95009.75;5005243;28;20113;-70
2023/12/31 10:30:20;;;;;;;15.18;10.68;;;;;;;7.68;67.65;95014.38;4973978;28;20116;-67
2023/12/31 10:32:45;;;;;;;17.45;11.55;;;;;;;7.77;67.36;95002.56;4988641;28;20109;-69
2023/12/31 10:35:11;;;;;;;16.90;11.07;;;;;;;7.97;65.54;94996.88;5005764;28;20539;-70
2023/12/31 10:37:36;;;;;;;18.95;12.20;;;;;;;7.80;66.80;94997.19;4988929;28;20037;-70
2023/12/31 10:40:21;;;;;;;17.33;12.00;;;;;;;7.87;66.73;94997.63;4990020;28;20104;-70
2023/12/31 10:42:48;;;;;;;18.77;10.50;;;;;;;7.78;66.50;94994.72;4985641;28;20026;-70
2023/12/31 10:45:18;;;;;;;13.38;9.27;;;;;;;7.86;66.45;94986.44;4971217;28;20485;-70
2023/12/31 10:47:44;;;;;;;19.95;11.93;;;;;;;7.68;66.90;94967.00;4956255;28;20124;-73
2023/12/31 10:50:09;;;;;;;14.43;10.73;;;;;;;8.09;66.14;94989.19;4967600;28;20030;-70
2023/12/31 10:52:34;;;;;;;21.58;16.40;;;;;;;8.35;65.03;94984.75;4966820;28;20516;-72
2023/12/31 10:55:00;;;;;;;21.05;15.23;;;;;;;8.34;65.10;94973.56;4970144;28;20042;-72
2023/12/31 10:57:25;;;;;;;14.38;8.95;;;;;;;8.41;63.93;94961.88;4964552;28;20030;-71
2023/12/31 10:59:50;;;;;;;13.98;8.23;;;;;;;8.79;64.56;94970.38;4972342;28;20503;-71
2023/12/31 11:02:20;;;;;;;15.80;9.57;;;;;;;8.58;63.53;94954.63;4966235;28;20026;-71
2023/12/31 11:04:47;;;;;;;15.00;8.77;;;;;;;8.74;63.55;94965.53;4971695;28;20046;-71
2023/12/31 11:07:19;;;;;;;13.05;8.90;;;;;;;8.98;62.93;94954.31;4973681;28;20426;-71
2023/12/31 11:09:48;;;;;;;10.13;7.22;;;;;;;8.97;62.41;94947.47;4972326;28;20104;-70
2023/12/31 11:12:14;;;;;;;10.65;6.97;;;;;;;9.08;62.50;94957.84;4992059;28;20485;-72
2023/12/31 11:14:44;;;;;;;11.85;7.60;;;;;;;9.09;62.86;94943.97;4957203;28;20414;-70
2023/12/31 11:17:31;;;;;;;13.50;8.52;;;;;;;9.01;62.51;94941.13;4971902;28;20037;-70
2023/12/31 11:20:14;;;;;;;12.65;7.57;;;;;;;9.20;62.01;94938.81;4989054;28;20042;-69
2023/12/31 11:22:50;;;;;;;10.68;7.88;;;;;;;9.43;62.83;94931.06;4979076;28;20030;-72
2023/12/31 11:25:19;;;;;;;11.32;7.63;;;;;;;9.53;62.02;94927.66;4984527;28;20080;-70